sensor_id;sensor_type;location;lat;lon;timestamp;temperature;humidity
20422;DHT22;10370;53.102;18.034;2023-04-25T00:03:54;11.90;99.90
20422;DHT22;10370;53.102;18.034;2023-04-25T00:09:15;11.80;99.90
20422;DHT22;10370;53.102;18.034;2023-04-25T00:14:38;11.80;99.90
20422;DHT22;10370;53.102;18.034;2023-04-25T00:20:07;11.80;99.90
20422;DHT22;10370;53.102;18.034;2023-04-25T00:25:34;11.70;99.90
20422;DHT22;10370;53.102;18.034;2023-04-25T00:31:00;11.70;99.90
20422;DHT22;10370;53.102;18.034;2023-04-25T00:36:25;11.60;99.90
20422;DHT22;10370;53.102;18.034;2023-04-25T00:41:50;11.40;99.90
20422;DHT22;10370;53.102;18.034;2023-04-25T00:47:15;11.30;99.90
20422;DHT22;10370;53.102;18.034;2023-04-25T00:52:41;11.20;99.90
20422;DHT22;10370;53.102;18.034;2023-04-25T00:58:07;11.00;99.90
20422;DHT22;10370;53.102;18.034;2023-04-25T01:03:33;11.00;99.90
20422;DHT22;10370;53.102;18.034;2023-04-25T01:08:58;10.80;99.90
20422;DHT22;10370;53.102;18.034;2023-04-25T01:14:24;10.80;99.90
20422;DHT22;10370;53.102;18.034;2023-04-25T01:19:49;10.60;99.90
20422;DHT22;10370;53.102;18.034;2023-04-25T01:25:16;10.50;99.90
20422;DHT22;10370;53.102;18.034;2023-04-25T01:30:42;10.50;99.90
20422;DHT22;10370;53.102;18.034;2023-04-25T01:36:08;10.50;99.90
20422;DHT22;10370;53.102;18.034;2023-04-25T01:41:34;10.50;99.90
20422;DHT22;10370;53.102;18.034;2023-04-25T01:46:57;10.50;99.90
20422;DHT22;10370;53.102;18.034;2023-04-25T01:52:23;10.30;99.90
20422;DHT22;10370;53.102;18.034;2023-04-25T01:57:48;10.20;99.90
20422;DHT22;10370;53.102;18.034;2023-04-25T02:03:13;10.20;99.90
20422;DHT22;10370;53.102;18.034;2023-04-25T02:08:38;10.20;99.90
20422;DHT22;10370;53.102;18.034;2023-04-25T02:14:04;10.10;99.90
20422;DHT22;10370;53.102;18.034;2023-04-25T02:19:27;10.00;99.90
20422;DHT22;10370;53.102;18.034;2023-04-25T02:24:54;10.00;99.90
20422;DHT22;10370;53.102;18.034;2023-04-25T02:30:20;9.60;99.90
20422;DHT22;10370;53.102;18.034;2023-04-25T02:35:45;9.70;99.90
20422;DHT22;10370;53.102;18.034;2023-04-25T02:41:13;9.60;99.90
20422;DHT22;10370;53.102;18.034;2023-04-25T02:46:39;9.50;99.90
20422;DHT22;10370;53.102;18.034;2023-04-25T02:52:03;9.50;99.90
20422;DHT22;10370;53.102;18.034;2023-04-25T02:57:26;9.30;99.90
20422;DHT22;10370;53.102;18.034;2023-04-25T03:02:50;9.20;99.90
20422;DHT22;10370;53.102;18.034;2023-04-25T03:08:15;9.20;99.90
20422;DHT22;10370;53.102;18.034;2023-04-25T03:13:38;9.10;99.90
20422;DHT22;10370;53.102;18.034;2023-04-25T03:19:03;8.90;99.90
20422;DHT22;10370;53.102;18.034;2023-04-25T03:24:26;9.00;99.90
20422;DHT22;10370;53.102;18.034;2023-04-25T03:29:52;9.00;99.90
20422;DHT22;10370;53.102;18.034;2023-04-25T03:35:19;8.90;99.90
20422;DHT22;10370;53.102;18.034;2023-04-25T03:40:45;8.90;99.90
20422;DHT22;10370;53.102;18.034;2023-04-25T03:46:10;8.70;99.90
20422;DHT22;10370;53.102;18.034;2023-04-25T03:51:31;8.50;99.90
20422;DHT22;10370;53.102;18.034;2023-04-25T03:56:53;8.50;99.90
20422;DHT22;10370;53.102;18.034;2023-04-25T04:02:21;8.50;99.90
20422;DHT22;10370;53.102;18.034;2023-04-25T04:07:45;8.50;99.90
20422;DHT22;10370;53.102;18.034;2023-04-25T04:13:09;8.60;99.90
20422;DHT22;10370;53.102;18.034;2023-04-25T04:18:38;8.70;99.90
20422;DHT22;10370;53.102;18.034;2023-04-25T04:24:01;8.80;99.90
20422;DHT22;10370;53.102;18.034;2023-04-25T04:29:26;8.90;99.90
20422;DHT22;10370;53.102;18.034;2023-04-25T04:34:49;8.80;99.90
20422;DHT22;10370;53.102;18.034;2023-04-25T04:40:15;8.80;99.90
20422;DHT22;10370;53.102;18.034;2023-04-25T04:45:41;8.60;99.90
20422;DHT22;10370;53.102;18.034;2023-04-25T04:51:07;8.60;99.90
20422;DHT22;10370;53.102;18.034;2023-04-25T04:56:32;8.50;99.90
20422;DHT22;10370;53.102;18.034;2023-04-25T05:01:57;8.70;99.90
20422;DHT22;10370;53.102;18.034;2023-04-25T05:07:18;8.70;99.90
20422;DHT22;10370;53.102;18.034;2023-04-25T05:12:42;8.80;99.90
20422;DHT22;10370;53.102;18.034;2023-04-25T05:18:07;8.80;99.90
20422;DHT22;10370;53.102;18.034;2023-04-25T05:23:32;9.00;99.90
20422;DHT22;10370;53.102;18.034;2023-04-25T05:28:58;8.80;99.90
20422;DHT22;10370;53.102;18.034;2023-04-25T05:34:21;9.20;99.90
20422;DHT22;10370;53.102;18.034;2023-04-25T05:39:44;9.50;99.90
20422;DHT22;10370;53.102;18.034;2023-04-25T05:45:11;10.40;99.90
20422;DHT22;10370;53.102;18.034;2023-04-25T05:50:37;10.30;99.90
20422;DHT22;10370;53.102;18.034;2023-04-25T05:56:01;11.20;99.90
20422;DHT22;10370;53.102;18.034;2023-04-25T06:01:25;10.40;99.90
20422;DHT22;10370;53.102;18.034;2023-04-25T06:06:48;10.40;99.90
20422;DHT22;10370;53.102;18.034;2023-04-25T06:12:11;10.20;99.90
20422;DHT22;10370;53.102;18.034;2023-04-25T06:17:34;10.10;99.90
20422;DHT22;10370;53.102;18.034;2023-04-25T06:22:55;10.30;99.90
20422;DHT22;10370;53.102;18.034;2023-04-25T06:28:17;10.20;99.90
20422;DHT22;10370;53.102;18.034;2023-04-25T06:33:42;10.50;99.90
20422;DHT22;10370;53.102;18.034;2023-04-25T06:39:04;10.60;99.90
20422;DHT22;10370;53.102;18.034;2023-04-25T06:44:27;10.60;99.90
20422;DHT22;10370;53.102;18.034;2023-04-25T06:49:53;10.80;99.90
20422;DHT22;10370;53.102;18.034;2023-04-25T06:55:14;10.70;99.90
20422;DHT22;10370;53.102;18.034;2023-04-25T07:00:38;10.60;99.90
20422;DHT22;10370;53.102;18.034;2023-04-25T07:06:01;10.50;99.90
20422;DHT22;10370;53.102;18.034;2023-04-25T07:11:26;10.80;99.90
20422;DHT22;10370;53.102;18.034;2023-04-25T07:16:50;11.00;99.90
20422;DHT22;10370;53.102;18.034;2023-04-25T07:22:15;11.10;99.90
20422;DHT22;10370;53.102;18.034;2023-04-25T07:27:47;11.30;99.90
20422;DHT22;10370;53.102;18.034;2023-04-25T07:33:09;11.20;99.90
20422;DHT22;10370;53.102;18.034;2023-04-25T07:38:31;11.30;99.90
20422;DHT22;10370;53.102;18.034;2023-04-25T07:43:55;11.10;99.90
20422;DHT22;10370;53.102;18.034;2023-04-25T07:49:18;10.90;99.90
20422;DHT22;10370;53.102;18.034;2023-04-25T07:54:43;10.80;99.90
20422;DHT22;10370;53.102;18.034;2023-04-25T08:00:09;11.00;99.90
20422;DHT22;10370;53.102;18.034;2023-04-25T08:05:32;11.20;99.90
20422;DHT22;10370;53.102;18.034;2023-04-25T08:10:55;11.50;99.90
20422;DHT22;10370;53.102;18.034;2023-04-25T08:16:20;12.10;99.90
20422;DHT22;10370;53.102;18.034;2023-04-25T08:21:44;12.40;99.90
20422;DHT22;10370;53.102;18.034;2023-04-25T08:27:07;12.10;99.90
20422;DHT22;10370;53.102;18.034;2023-04-25T08:32:31;11.50;99.90
20422;DHT22;10370;53.102;18.034;2023-04-25T08:37:55;11.50;99.90
20422;DHT22;10370;53.102;18.034;2023-04-25T08:43:19;11.60;99.90
20422;DHT22;10370;53.102;18.034;2023-04-25T08:48:45;11.60;99.90
20422;DHT22;10370;53.102;18.034;2023-04-25T08:54:11;11.50;99.90
20422;DHT22;10370;53.102;18.034;2023-04-25T08:59:37;11.50;99.90
20422;DHT22;10370;53.102;18.034;2023-04-25T09:05:02;11.60;99.90
20422;DHT22;10370;53.102;18.034;2023-04-25T09:10:30;11.70;99.90
20422;DHT22;10370;53.102;18.034;2023-04-25T09:15:58;11.70;99.90
20422;DHT22;10370;53.102;18.034;2023-04-25T09:21:22;11.50;99.90
20422;DHT22;10370;53.102;18.034;2023-04-25T09:26:46;11.40;99.90
20422;DHT22;10370;53.102;18.034;2023-04-25T09:32:18;11.60;99.90
20422;DHT22;10370;53.102;18.034;2023-04-25T09:38:10;11.70;99.90
20422;DHT22;10370;53.102;18.034;2023-04-25T09:43:32;12.00;99.90
20422;DHT22;10370;53.102;18.034;2023-04-25T09:48:53;12.20;99.90
20422;DHT22;10370;53.102;18.034;2023-04-25T09:54:15;12.20;99.90
20422;DHT22;10370;53.102;18.034;2023-04-25T09:59:49;12.20;99.90
20422;DHT22;10370;53.102;18.034;2023-04-25T10:05:13;11.70;99.90
20422;DHT22;10370;53.102;18.034;2023-04-25T10:10:54;11.90;99.90
20422;DHT22;10370;53.102;18.034;2023-04-25T10:16:37;12.00;99.90
20422;DHT22;10370;53.102;18.034;2023-04-25T10:22:18;12.10;99.90
20422;DHT22;10370;53.102;18.034;2023-04-25T10:27:43;12.30;99.90
20422;DHT22;10370;53.102;18.034;2023-04-25T10:33:17;12.20;99.90
20422;DHT22;10370;53.102;18.034;2023-04-25T10:38:42;11.90;99.90
20422;DHT22;10370;53.102;18.034;2023-04-25T10:44:06;11.90;99.90
20422;DHT22;10370;53.102;18.034;2023-04-25T10:49:35;11.90;99.90
20422;DHT22;10370;53.102;18.034;2023-04-25T10:54:59;11.90;99.90
20422;DHT22;10370;53.102;18.034;2023-04-25T11:00:26;11.90;99.90
20422;DHT22;10370;53.102;18.034;2023-04-25T11:06:05;12.10;99.90
20422;DHT22;10370;53.102;18.034;2023-04-25T11:11:31;12.40;99.90
20422;DHT22;10370;53.102;18.034;2023-04-25T11:16:59;12.60;99.90
20422;DHT22;10370;53.102;18.034;2023-04-25T11:22:26;12.90;99.90
20422;DHT22;10370;53.102;18.034;2023-04-25T11:27:55;12.90;99.90
20422;DHT22;10370;53.102;18.034;2023-04-25T11:33:24;12.80;99.90
20422;DHT22;10370;53.102;18.034;2023-04-25T11:38:46;12.70;99.90
20422;DHT22;10370;53.102;18.034;2023-04-25T11:44:11;12.90;99.90
20422;DHT22;10370;53.102;18.034;2023-04-25T11:49:37;12.90;99.90
20422;DHT22;10370;53.102;18.034;2023-04-25T11:55:06;13.00;99.90
20422;DHT22;10370;53.102;18.034;2023-04-25T12:00:31;13.10;99.90
20422;DHT22;10370;53.102;18.034;2023-04-25T12:05:54;13.40;99.90
20422;DHT22;10370;53.102;18.034;2023-04-25T12:11:25;13.50;99.90
20422;DHT22;10370;53.102;18.034;2023-04-25T12:16:48;13.50;99.90
20422;DHT22;10370;53.102;18.034;2023-04-25T12:22:23;13.50;99.90
20422;DHT22;10370;53.102;18.034;2023-04-25T12:27:47;13.30;99.90
20422;DHT22;10370;53.102;18.034;2023-04-25T12:33:14;13.40;99.90
20422;DHT22;10370;53.102;18.034;2023-04-25T12:38:41;13.60;99.90
20422;DHT22;10370;53.102;18.034;2023-04-25T12:44:06;13.70;99.90
20422;DHT22;10370;53.102;18.034;2023-04-25T12:49:32;13.50;99.90
20422;DHT22;10370;53.102;18.034;2023-04-25T12:54:57;13.60;99.90
20422;DHT22;10370;53.102;18.034;2023-04-25T13:00:21;13.80;99.90
20422;DHT22;10370;53.102;18.034;2023-04-25T13:05:42;14.00;99.90
20422;DHT22;10370;53.102;18.034;2023-04-25T13:11:08;14.10;99.90
20422;DHT22;10370;53.102;18.034;2023-04-25T13:16:31;14.10;99.90
20422;DHT22;10370;53.102;18.034;2023-04-25T13:21:55;14.00;99.90
20422;DHT22;10370;53.102;18.034;2023-04-25T13:27:18;13.80;99.90
20422;DHT22;10370;53.102;18.034;2023-04-25T13:32:39;13.40;99.90
20422;DHT22;10370;53.102;18.034;2023-04-25T13:38:01;13.10;99.90
20422;DHT22;10370;53.102;18.034;2023-04-25T13:43:24;12.80;99.90
20422;DHT22;10370;53.102;18.034;2023-04-25T13:48:48;12.80;99.90
20422;DHT22;10370;53.102;18.034;2023-04-25T13:54:09;12.80;99.90
20422;DHT22;10370;53.102;18.034;2023-04-25T13:59:33;12.90;99.90
20422;DHT22;10370;53.102;18.034;2023-04-25T14:04:57;13.10;99.90
20422;DHT22;10370;53.102;18.034;2023-04-25T14:10:27;13.20;99.90
20422;DHT22;10370;53.102;18.034;2023-04-25T14:15:52;12.90;99.90
20422;DHT22;10370;53.102;18.034;2023-04-25T14:21:14;12.20;99.90
20422;DHT22;10370;53.102;18.034;2023-04-25T14:26:37;12.10;99.90
20422;DHT22;10370;53.102;18.034;2023-04-25T14:32:01;12.10;99.90
20422;DHT22;10370;53.102;18.034;2023-04-25T14:37:23;11.90;99.90
20422;DHT22;10370;53.102;18.034;2023-04-25T14:42:48;12.00;99.90
20422;DHT22;10370;53.102;18.034;2023-04-25T14:48:11;12.10;99.90
20422;DHT22;10370;53.102;18.034;2023-04-25T14:53:34;12.20;99.90
20422;DHT22;10370;53.102;18.034;2023-04-25T14:58:59;12.10;99.90
20422;DHT22;10370;53.102;18.034;2023-04-25T15:04:22;12.00;99.90
20422;DHT22;10370;53.102;18.034;2023-04-25T15:09:47;11.90;99.90
20422;DHT22;10370;53.102;18.034;2023-04-25T15:15:11;11.80;99.90
20422;DHT22;10370;53.102;18.034;2023-04-25T15:20:46;11.60;99.90
20422;DHT22;10370;53.102;18.034;2023-04-25T15:26:09;11.50;99.90
20422;DHT22;10370;53.102;18.034;2023-04-25T15:31:30;11.20;99.90
20422;DHT22;10370;53.102;18.034;2023-04-25T15:36:52;10.90;99.90
20422;DHT22;10370;53.102;18.034;2023-04-25T15:42:21;11.10;99.90
20422;DHT22;10370;53.102;18.034;2023-04-25T15:47:47;11.00;99.90
20422;DHT22;10370;53.102;18.034;2023-04-25T15:53:09;11.00;99.90
20422;DHT22;10370;53.102;18.034;2023-04-25T15:58:33;10.80;99.90
20422;DHT22;10370;53.102;18.034;2023-04-25T16:03:53;10.70;99.90
20422;DHT22;10370;53.102;18.034;2023-04-25T16:09:21;10.70;99.90
20422;DHT22;10370;53.102;18.034;2023-04-25T16:14:44;10.70;99.90
20422;DHT22;10370;53.102;18.034;2023-04-25T16:20:06;10.70;99.90
20422;DHT22;10370;53.102;18.034;2023-04-25T16:25:32;10.70;99.90
20422;DHT22;10370;53.102;18.034;2023-04-25T16:31:07;10.60;99.90
20422;DHT22;10370;53.102;18.034;2023-04-25T16:36:30;10.60;99.90
20422;DHT22;10370;53.102;18.034;2023-04-25T16:41:56;10.60;99.90
20422;DHT22;10370;53.102;18.034;2023-04-25T16:47:18;10.60;99.90
20422;DHT22;10370;53.102;18.034;2023-04-25T16:52:42;10.70;99.90
20422;DHT22;10370;53.102;18.034;2023-04-25T16:58:05;10.60;99.90
20422;DHT22;10370;53.102;18.034;2023-04-25T17:03:29;10.60;99.90
20422;DHT22;10370;53.102;18.034;2023-04-25T17:08:54;10.50;99.90
20422;DHT22;10370;53.102;18.034;2023-04-25T17:14:15;10.60;99.90
20422;DHT22;10370;53.102;18.034;2023-04-25T17:19:37;10.50;99.90
20422;DHT22;10370;53.102;18.034;2023-04-25T17:25:00;10.50;99.90
20422;DHT22;10370;53.102;18.034;2023-04-25T17:30:23;10.60;99.90
20422;DHT22;10370;53.102;18.034;2023-04-25T17:35:49;10.50;99.90
20422;DHT22;10370;53.102;18.034;2023-04-25T17:41:12;10.40;99.90
20422;DHT22;10370;53.102;18.034;2023-04-25T17:46:36;10.50;99.90
20422;DHT22;10370;53.102;18.034;2023-04-25T17:52:04;10.30;99.90
20422;DHT22;10370;53.102;18.034;2023-04-25T17:57:30;10.40;99.90
20422;DHT22;10370;53.102;18.034;2023-04-25T18:02:55;10.20;99.90
20422;DHT22;10370;53.102;18.034;2023-04-25T18:08:19;10.20;99.90
20422;DHT22;10370;53.102;18.034;2023-04-25T18:13:46;10.20;99.90
20422;DHT22;10370;53.102;18.034;2023-04-25T18:19:11;10.10;99.90
20422;DHT22;10370;53.102;18.034;2023-04-25T18:24:36;10.00;99.90
20422;DHT22;10370;53.102;18.034;2023-04-25T18:30:00;10.00;99.90
20422;DHT22;10370;53.102;18.034;2023-04-25T18:35:22;9.90;99.90
20422;DHT22;10370;53.102;18.034;2023-04-25T18:40:49;9.90;99.90
20422;DHT22;10370;53.102;18.034;2023-04-25T18:46:22;9.80;99.90
20422;DHT22;10370;53.102;18.034;2023-04-25T18:51:44;9.60;99.90
20422;DHT22;10370;53.102;18.034;2023-04-25T18:57:37;9.60;99.90
20422;DHT22;10370;53.102;18.034;2023-04-25T19:02:58;9.40;99.90
20422;DHT22;10370;53.102;18.034;2023-04-25T19:08:23;9.30;99.90
20422;DHT22;10370;53.102;18.034;2023-04-25T19:14:02;9.20;99.90
20422;DHT22;10370;53.102;18.034;2023-04-25T19:19:24;9.10;99.90
20422;DHT22;10370;53.102;18.034;2023-04-25T19:24:46;9.00;99.90
20422;DHT22;10370;53.102;18.034;2023-04-25T19:30:18;8.90;99.90
20422;DHT22;10370;53.102;18.034;2023-04-25T19:35:41;8.70;99.90
20422;DHT22;10370;53.102;18.034;2023-04-25T19:41:04;8.70;99.90
20422;DHT22;10370;53.102;18.034;2023-04-25T19:46:30;8.60;99.90
20422;DHT22;10370;53.102;18.034;2023-04-25T19:51:52;8.60;99.90
20422;DHT22;10370;53.102;18.034;2023-04-25T19:57:13;8.50;99.90
20422;DHT22;10370;53.102;18.034;2023-04-25T20:02:37;8.40;99.90
20422;DHT22;10370;53.102;18.034;2023-04-25T20:07:57;8.20;99.90
20422;DHT22;10370;53.102;18.034;2023-04-25T20:13:23;8.10;99.90
20422;DHT22;10370;53.102;18.034;2023-04-25T20:18:45;7.90;99.90
20422;DHT22;10370;53.102;18.034;2023-04-25T20:24:09;7.80;99.90
20422;DHT22;10370;53.102;18.034;2023-04-25T20:29:34;7.60;99.90
20422;DHT22;10370;53.102;18.034;2023-04-25T20:35:00;7.50;99.90
20422;DHT22;10370;53.102;18.034;2023-04-25T20:40:25;7.30;99.90
20422;DHT22;10370;53.102;18.034;2023-04-25T20:45:47;7.20;99.90
20422;DHT22;10370;53.102;18.034;2023-04-25T20:51:08;7.10;99.90
20422;DHT22;10370;53.102;18.034;2023-04-25T20:56:30;7.10;99.90
20422;DHT22;10370;53.102;18.034;2023-04-25T21:01:53;7.00;99.90
20422;DHT22;10370;53.102;18.034;2023-04-25T21:07:18;6.90;99.90
20422;DHT22;10370;53.102;18.034;2023-04-25T21:12:41;6.80;99.90
20422;DHT22;10370;53.102;18.034;2023-04-25T21:18:11;6.70;99.90
20422;DHT22;10370;53.102;18.034;2023-04-25T21:23:36;6.50;99.90
20422;DHT22;10370;53.102;18.034;2023-04-25T21:29:02;6.50;99.90
20422;DHT22;10370;53.102;18.034;2023-04-25T21:34:27;6.30;99.90
20422;DHT22;10370;53.102;18.034;2023-04-25T21:39:53;6.10;99.90
20422;DHT22;10370;53.102;18.034;2023-04-25T21:45:18;5.90;99.90
20422;DHT22;10370;53.102;18.034;2023-04-25T21:50:43;5.70;99.90
20422;DHT22;10370;53.102;18.034;2023-04-25T21:56:09;5.60;99.90
20422;DHT22;10370;53.102;18.034;2023-04-25T22:01:34;5.50;99.90
20422;DHT22;10370;53.102;18.034;2023-04-25T22:07:02;5.40;99.90
20422;DHT22;10370;53.102;18.034;2023-04-25T22:12:25;5.60;99.90
20422;DHT22;10370;53.102;18.034;2023-04-25T22:17:51;5.60;99.90
20422;DHT22;10370;53.102;18.034;2023-04-25T22:23:19;5.40;99.90
20422;DHT22;10370;53.102;18.034;2023-04-25T22:28:44;5.30;99.90
20422;DHT22;10370;53.102;18.034;2023-04-25T22:34:07;5.30;99.90
20422;DHT22;10370;53.102;18.034;2023-04-25T22:39:31;5.20;99.90
20422;DHT22;10370;53.102;18.034;2023-04-25T22:44:58;5.10;99.90
20422;DHT22;10370;53.102;18.034;2023-04-25T22:50:22;5.20;99.90
20422;DHT22;10370;53.102;18.034;2023-04-25T22:55:54;5.30;99.90
20422;DHT22;10370;53.102;18.034;2023-04-25T23:01:20;5.20;99.90
20422;DHT22;10370;53.102;18.034;2023-04-25T23:06:46;5.10;99.90
20422;DHT22;10370;53.102;18.034;2023-04-25T23:12:20;5.10;99.90
20422;DHT22;10370;53.102;18.034;2023-04-25T23:17:45;5.20;99.90
20422;DHT22;10370;53.102;18.034;2023-04-25T23:23:09;5.20;99.90
20422;DHT22;10370;53.102;18.034;2023-04-25T23:28:40;5.20;99.90
20422;DHT22;10370;53.102;18.034;2023-04-25T23:34:09;5.30;99.90
20422;DHT22;10370;53.102;18.034;2023-04-25T23:39:34;5.20;99.90
20422;DHT22;10370;53.102;18.034;2023-04-25T23:45:06;5.20;99.90
20422;DHT22;10370;53.102;18.034;2023-04-25T23:50:30;5.10;99.90
20422;DHT22;10370;53.102;18.034;2023-04-25T23:55:54;5.10;99.90
